sensor_id;sensor_type;location;lat;lon;timestamp;P1;durP1;ratioP1;P2;durP2;ratioP2
55222;SDS011;41090;48.632;12.428;2023-03-14T00:01:31;5.30;;;3.20;;
55222;SDS011;41090;48.632;12.428;2023-03-14T00:03:56;4.40;;;3.73;;
55222;SDS011;41090;48.632;12.428;2023-03-14T00:06:21;4.10;;;3.40;;
55222;SDS011;41090;48.632;12.428;2023-03-14T00:08:47;5.23;;;3.50;;
55222;SDS011;41090;48.632;12.428;2023-03-14T00:11:13;3.97;;;3.10;;
55222;SDS011;41090;48.632;12.428;2023-03-14T00:13:40;5.50;;;3.47;;
55222;SDS011;41090;48.632;12.428;2023-03-14T00:16:07;3.83;;;3.20;;
55222;SDS011;41090;48.632;12.428;2023-03-14T00:18:33;4.13;;;3.00;;
55222;SDS011;41090;48.632;12.428;2023-03-14T00:20:59;3.63;;;3.20;;
55222;SDS011;41090;48.632;12.428;2023-03-14T00:23:24;3.77;;;3.13;;
55222;SDS011;41090;48.632;12.428;2023-03-14T00:25:49;3.77;;;3.10;;
55222;SDS011;41090;48.632;12.428;2023-03-14T00:28:14;3.37;;;3.07;;
55222;SDS011;41090;48.632;12.428;2023-03-14T00:30:40;5.90;;;3.43;;
55222;SDS011;41090;48.632;12.428;2023-03-14T00:33:05;4.03;;;3.20;;
55222;SDS011;41090;48.632;12.428;2023-03-14T00:35:30;3.60;;;3.30;;
55222;SDS011;41090;48.632;12.428;2023-03-14T00:37:55;3.23;;;2.93;;
55222;SDS011;41090;48.632;12.428;2023-03-14T00:40:21;5.23;;;3.17;;
55222;SDS011;41090;48.632;12.428;2023-03-14T00:42:46;5.97;;;3.63;;
55222;SDS011;41090;48.632;12.428;2023-03-14T00:45:11;3.73;;;3.10;;
55222;SDS011;41090;48.632;12.428;2023-03-14T00:47:36;3.80;;;3.40;;
55222;SDS011;41090;48.632;12.428;2023-03-14T00:50:03;5.27;;;3.23;;
55222;SDS011;41090;48.632;12.428;2023-03-14T00:52:28;3.00;;;2.80;;
55222;SDS011;41090;48.632;12.428;2023-03-14T00:54:53;2.93;;;2.73;;
55222;SDS011;41090;48.632;12.428;2023-03-14T00:57:18;2.80;;;2.60;;
55222;SDS011;41090;48.632;12.428;2023-03-14T00:59:44;3.07;;;2.60;;
55222;SDS011;41090;48.632;12.428;2023-03-14T01:02:09;3.10;;;2.80;;
55222;SDS011;41090;48.632;12.428;2023-03-14T01:04:34;3.00;;;2.70;;
55222;SDS011;41090;48.632;12.428;2023-03-14T01:06:59;3.63;;;3.10;;
55222;SDS011;41090;48.632;12.428;2023-03-14T01:09:25;3.80;;;2.90;;
55222;SDS011;41090;48.632;12.428;2023-03-14T01:11:50;3.73;;;2.90;;
55222;SDS011;41090;48.632;12.428;2023-03-14T01:14:15;4.47;;;3.00;;
55222;SDS011;41090;48.632;12.428;2023-03-14T01:16:40;2.97;;;2.60;;
55222;SDS011;41090;48.632;12.428;2023-03-14T01:19:06;3.27;;;2.80;;
55222;SDS011;41090;48.632;12.428;2023-03-14T01:21:32;3.17;;;2.80;;
55222;SDS011;41090;48.632;12.428;2023-03-14T01:23:58;3.47;;;3.07;;
55222;SDS011;41090;48.632;12.428;2023-03-14T01:26:25;3.33;;;2.70;;
55222;SDS011;41090;48.632;12.428;2023-03-14T01:28:52;3.20;;;2.90;;
55222;SDS011;41090;48.632;12.428;2023-03-14T01:31:18;3.47;;;3.17;;
55222;SDS011;41090;48.632;12.428;2023-03-14T01:33:43;3.67;;;3.10;;
55222;SDS011;41090;48.632;12.428;2023-03-14T01:36:09;3.00;;;2.70;;
55222;SDS011;41090;48.632;12.428;2023-03-14T01:38:35;3.87;;;3.20;;
55222;SDS011;41090;48.632;12.428;2023-03-14T01:41:00;3.07;;;2.67;;
55222;SDS011;41090;48.632;12.428;2023-03-14T01:43:30;2.93;;;2.63;;
55222;SDS011;41090;48.632;12.428;2023-03-14T01:51:08;2.50;;;2.10;;
55222;SDS011;41090;48.632;12.428;2023-03-14T01:53:36;2.53;;;2.10;;
55222;SDS011;41090;48.632;12.428;2023-03-14T01:56:01;2.80;;;1.60;;
55222;SDS011;41090;48.632;12.428;2023-03-14T01:58:28;2.00;;;1.33;;
55222;SDS011;41090;48.632;12.428;2023-03-14T02:00:56;1.40;;;1.30;;
55222;SDS011;41090;48.632;12.428;2023-03-14T02:03:22;1.40;;;1.30;;
55222;SDS011;41090;48.632;12.428;2023-03-14T02:05:49;1.30;;;1.20;;
55222;SDS011;41090;48.632;12.428;2023-03-14T02:08:19;1.27;;;1.07;;
55222;SDS011;41090;48.632;12.428;2023-03-14T02:10:45;1.73;;;1.37;;
55222;SDS011;41090;48.632;12.428;2023-03-14T02:13:12;1.93;;;1.20;;
55222;SDS011;41090;48.632;12.428;2023-03-14T02:15:38;1.37;;;1.20;;
55222;SDS011;41090;48.632;12.428;2023-03-14T02:18:04;1.80;;;1.30;;
55222;SDS011;41090;48.632;12.428;2023-03-14T02:20:42;1.40;;;1.30;;
55222;SDS011;41090;48.632;12.428;2023-03-14T02:23:10;1.20;;;1.10;;
55222;SDS011;41090;48.632;12.428;2023-03-14T02:28:14;1.37;;;1.23;;
55222;SDS011;41090;48.632;12.428;2023-03-14T02:30:39;1.40;;;1.20;;
55222;SDS011;41090;48.632;12.428;2023-03-14T02:33:06;2.23;;;1.20;;
55222;SDS011;41090;48.632;12.428;2023-03-14T02:35:34;2.77;;;1.10;;
55222;SDS011;41090;48.632;12.428;2023-03-14T02:38:17;1.63;;;1.20;;
55222;SDS011;41090;48.632;12.428;2023-03-14T02:40:44;2.40;;;1.20;;
55222;SDS011;41090;48.632;12.428;2023-03-14T02:43:09;1.47;;;1.10;;
55222;SDS011;41090;48.632;12.428;2023-03-14T02:45:37;1.10;;;1.00;;
55222;SDS011;41090;48.632;12.428;2023-03-14T02:48:11;2.60;;;1.27;;
55222;SDS011;41090;48.632;12.428;2023-03-14T02:50:37;1.53;;;1.07;;
55222;SDS011;41090;48.632;12.428;2023-03-14T02:53:03;1.23;;;1.00;;
55222;SDS011;41090;48.632;12.428;2023-03-14T02:55:28;1.20;;;1.03;;
55222;SDS011;41090;48.632;12.428;2023-03-14T02:57:53;1.10;;;1.00;;
55222;SDS011;41090;48.632;12.428;2023-03-14T03:00:19;1.50;;;1.00;;
55222;SDS011;41090;48.632;12.428;2023-03-14T03:02:44;2.13;;;1.30;;
55222;SDS011;41090;48.632;12.428;2023-03-14T03:05:10;2.27;;;1.10;;
55222;SDS011;41090;48.632;12.428;2023-03-14T03:07:35;2.37;;;1.10;;
55222;SDS011;41090;48.632;12.428;2023-03-14T03:10:00;1.20;;;1.10;;
55222;SDS011;41090;48.632;12.428;2023-03-14T03:12:25;1.13;;;1.03;;
55222;SDS011;41090;48.632;12.428;2023-03-14T03:14:51;1.10;;;0.97;;
55222;SDS011;41090;48.632;12.428;2023-03-14T03:17:16;2.73;;;1.00;;
55222;SDS011;41090;48.632;12.428;2023-03-14T03:19:41;1.30;;;1.07;;
55222;SDS011;41090;48.632;12.428;2023-03-14T03:22:07;1.87;;;1.13;;
55222;SDS011;41090;48.632;12.428;2023-03-14T03:24:32;1.17;;;1.00;;
55222;SDS011;41090;48.632;12.428;2023-03-14T03:26:57;1.63;;;1.10;;
55222;SDS011;41090;48.632;12.428;2023-03-14T03:29:22;1.77;;;1.27;;
55222;SDS011;41090;48.632;12.428;2023-03-14T03:31:48;1.00;;;1.00;;
55222;SDS011;41090;48.632;12.428;2023-03-14T03:34:13;1.10;;;1.00;;
55222;SDS011;41090;48.632;12.428;2023-03-14T03:36:38;1.13;;;1.03;;
55222;SDS011;41090;48.632;12.428;2023-03-14T03:39:04;1.20;;;1.10;;
55222;SDS011;41090;48.632;12.428;2023-03-14T03:41:29;1.37;;;0.90;;
55222;SDS011;41090;48.632;12.428;2023-03-14T03:43:55;1.13;;;0.90;;
55222;SDS011;41090;48.632;12.428;2023-03-14T03:46:20;1.70;;;1.00;;
55222;SDS011;41090;48.632;12.428;2023-03-14T03:48:46;1.43;;;1.00;;
55222;SDS011;41090;48.632;12.428;2023-03-14T03:51:14;1.40;;;0.90;;
55222;SDS011;41090;48.632;12.428;2023-03-14T03:53:40;1.10;;;1.00;;
55222;SDS011;41090;48.632;12.428;2023-03-14T03:56:05;1.10;;;0.90;;
55222;SDS011;41090;48.632;12.428;2023-03-14T03:58:31;1.10;;;1.00;;
55222;SDS011;41090;48.632;12.428;2023-03-14T04:00:56;1.00;;;0.90;;
55222;SDS011;41090;48.632;12.428;2023-03-14T04:03:21;1.33;;;0.90;;
55222;SDS011;41090;48.632;12.428;2023-03-14T04:05:46;1.97;;;0.90;;
55222;SDS011;41090;48.632;12.428;2023-03-14T04:08:11;0.80;;;0.80;;
55222;SDS011;41090;48.632;12.428;2023-03-14T04:10:37;2.13;;;1.00;;
55222;SDS011;41090;48.632;12.428;2023-03-14T04:13:02;1.00;;;0.90;;
55222;SDS011;41090;48.632;12.428;2023-03-14T04:15:27;2.87;;;1.10;;
55222;SDS011;41090;48.632;12.428;2023-03-14T04:17:56;1.10;;;1.00;;
55222;SDS011;41090;48.632;12.428;2023-03-14T04:20:21;1.23;;;0.90;;
55222;SDS011;41090;48.632;12.428;2023-03-14T04:22:47;1.43;;;0.90;;
55222;SDS011;41090;48.632;12.428;2023-03-14T04:25:12;2.00;;;1.00;;
55222;SDS011;41090;48.632;12.428;2023-03-14T04:27:37;1.90;;;1.00;;
55222;SDS011;41090;48.632;12.428;2023-03-14T04:30:02;0.80;;;0.80;;
55222;SDS011;41090;48.632;12.428;2023-03-14T04:32:28;1.10;;;0.90;;
55222;SDS011;41090;48.632;12.428;2023-03-14T04:34:53;1.60;;;0.90;;
55222;SDS011;41090;48.632;12.428;2023-03-14T04:37:18;0.87;;;0.87;;
55222;SDS011;41090;48.632;12.428;2023-03-14T04:39:43;0.90;;;0.90;;
55222;SDS011;41090;48.632;12.428;2023-03-14T04:42:09;0.90;;;0.90;;
55222;SDS011;41090;48.632;12.428;2023-03-14T04:44:34;1.00;;;0.93;;
55222;SDS011;41090;48.632;12.428;2023-03-14T04:46:59;1.33;;;1.17;;
55222;SDS011;41090;48.632;12.428;2023-03-14T04:49:24;1.13;;;0.93;;
55222;SDS011;41090;48.632;12.428;2023-03-14T04:51:49;1.00;;;0.90;;
55222;SDS011;41090;48.632;12.428;2023-03-14T04:54:16;0.80;;;0.77;;
55222;SDS011;41090;48.632;12.428;2023-03-14T04:56:41;1.97;;;1.00;;
55222;SDS011;41090;48.632;12.428;2023-03-14T04:59:06;1.10;;;1.00;;
55222;SDS011;41090;48.632;12.428;2023-03-14T05:01:33;1.63;;;1.00;;
55222;SDS011;41090;48.632;12.428;2023-03-14T05:03:58;1.90;;;1.30;;
55222;SDS011;41090;48.632;12.428;2023-03-14T05:06:23;0.83;;;0.83;;
55222;SDS011;41090;48.632;12.428;2023-03-14T05:08:48;1.07;;;0.83;;
55222;SDS011;41090;48.632;12.428;2023-03-14T05:11:14;1.33;;;0.93;;
55222;SDS011;41090;48.632;12.428;2023-03-14T05:13:39;1.13;;;0.90;;
55222;SDS011;41090;48.632;12.428;2023-03-14T05:16:05;0.80;;;0.80;;
55222;SDS011;41090;48.632;12.428;2023-03-14T05:18:31;0.90;;;0.90;;
55222;SDS011;41090;48.632;12.428;2023-03-14T05:20:57;1.83;;;1.10;;
55222;SDS011;41090;48.632;12.428;2023-03-14T05:23:23;0.90;;;0.90;;
55222;SDS011;41090;48.632;12.428;2023-03-14T05:25:48;1.07;;;0.97;;
55222;SDS011;41090;48.632;12.428;2023-03-14T05:28:13;0.97;;;0.90;;
55222;SDS011;41090;48.632;12.428;2023-03-14T05:30:38;1.50;;;1.10;;
55222;SDS011;41090;48.632;12.428;2023-03-14T05:33:03;0.90;;;0.90;;
55222;SDS011;41090;48.632;12.428;2023-03-14T05:35:29;1.10;;;1.00;;
55222;SDS011;41090;48.632;12.428;2023-03-14T05:37:54;0.80;;;0.80;;
55222;SDS011;41090;48.632;12.428;2023-03-14T05:40:19;2.80;;;1.00;;
55222;SDS011;41090;48.632;12.428;2023-03-14T05:42:44;1.00;;;0.90;;
55222;SDS011;41090;48.632;12.428;2023-03-14T05:45:10;1.00;;;0.87;;
55222;SDS011;41090;48.632;12.428;2023-03-14T05:47:35;2.03;;;1.00;;
55222;SDS011;41090;48.632;12.428;2023-03-14T05:50:01;0.73;;;0.73;;
55222;SDS011;41090;48.632;12.428;2023-03-14T05:52:26;1.10;;;1.00;;
55222;SDS011;41090;48.632;12.428;2023-03-14T05:54:51;1.10;;;1.00;;
55222;SDS011;41090;48.632;12.428;2023-03-14T05:57:17;1.00;;;0.90;;
55222;SDS011;41090;48.632;12.428;2023-03-14T05:59:42;0.90;;;0.90;;
55222;SDS011;41090;48.632;12.428;2023-03-14T06:02:08;0.80;;;0.80;;
55222;SDS011;41090;48.632;12.428;2023-03-14T06:04:33;1.00;;;0.90;;
55222;SDS011;41090;48.632;12.428;2023-03-14T06:06:58;0.90;;;0.90;;
55222;SDS011;41090;48.632;12.428;2023-03-14T06:09:23;0.80;;;0.80;;
55222;SDS011;41090;48.632;12.428;2023-03-14T06:11:49;1.80;;;1.00;;
55222;SDS011;41090;48.632;12.428;2023-03-14T06:14:15;0.93;;;0.87;;
55222;SDS011;41090;48.632;12.428;2023-03-14T06:16:42;3.37;;;1.10;;
55222;SDS011;41090;48.632;12.428;2023-03-14T06:19:08;1.00;;;0.90;;
55222;SDS011;41090;48.632;12.428;2023-03-14T06:21:33;1.90;;;0.90;;
55222;SDS011;41090;48.632;12.428;2023-03-14T06:23:58;1.13;;;1.00;;
55222;SDS011;41090;48.632;12.428;2023-03-14T06:26:23;1.20;;;0.90;;
55222;SDS011;41090;48.632;12.428;2023-03-14T06:28:50;1.20;;;1.10;;
55222;SDS011;41090;48.632;12.428;2023-03-14T06:31:16;1.10;;;1.00;;
55222;SDS011;41090;48.632;12.428;2023-03-14T06:33:41;1.93;;;1.17;;
55222;SDS011;41090;48.632;12.428;2023-03-14T06:36:07;1.73;;;1.20;;
55222;SDS011;41090;48.632;12.428;2023-03-14T06:38:32;1.33;;;1.23;;
55222;SDS011;41090;48.632;12.428;2023-03-14T06:41:02;1.77;;;1.30;;
55222;SDS011;41090;48.632;12.428;2023-03-14T06:43:28;2.70;;;1.40;;
55222;SDS011;41090;48.632;12.428;2023-03-14T06:45:53;1.30;;;1.13;;
55222;SDS011;41090;48.632;12.428;2023-03-14T06:48:18;1.20;;;1.10;;
55222;SDS011;41090;48.632;12.428;2023-03-14T06:50:43;1.20;;;1.10;;
55222;SDS011;41090;48.632;12.428;2023-03-14T06:53:09;1.63;;;0.87;;
55222;SDS011;41090;48.632;12.428;2023-03-14T06:55:34;0.93;;;0.90;;
55222;SDS011;41090;48.632;12.428;2023-03-14T06:57:59;1.30;;;0.93;;
55222;SDS011;41090;48.632;12.428;2023-03-14T07:00:24;1.03;;;0.93;;
55222;SDS011;41090;48.632;12.428;2023-03-14T07:02:50;0.90;;;0.90;;
55222;SDS011;41090;48.632;12.428;2023-03-14T07:05:15;0.97;;;0.87;;
55222;SDS011;41090;48.632;12.428;2023-03-14T07:07:40;1.93;;;0.97;;
55222;SDS011;41090;48.632;12.428;2023-03-14T07:10:05;0.80;;;0.80;;
55222;SDS011;41090;48.632;12.428;2023-03-14T07:12:33;0.67;;;0.67;;
55222;SDS011;41090;48.632;12.428;2023-03-14T07:14:59;1.03;;;0.97;;
55222;SDS011;41090;48.632;12.428;2023-03-14T07:17:24;0.70;;;0.70;;
55222;SDS011;41090;48.632;12.428;2023-03-14T07:19:49;1.10;;;1.00;;
55222;SDS011;41090;48.632;12.428;2023-03-14T07:22:15;1.00;;;0.90;;
55222;SDS011;41090;48.632;12.428;2023-03-14T07:24:40;1.03;;;0.93;;
55222;SDS011;41090;48.632;12.428;2023-03-14T07:27:05;1.00;;;0.90;;
55222;SDS011;41090;48.632;12.428;2023-03-14T07:29:31;1.07;;;0.97;;
55222;SDS011;41090;48.632;12.428;2023-03-14T07:31:56;0.90;;;0.90;;
55222;SDS011;41090;48.632;12.428;2023-03-14T07:34:22;0.93;;;0.90;;
55222;SDS011;41090;48.632;12.428;2023-03-14T07:36:47;1.07;;;0.97;;
55222;SDS011;41090;48.632;12.428;2023-03-14T07:39:14;1.00;;;0.90;;
55222;SDS011;41090;48.632;12.428;2023-03-14T07:41:39;1.10;;;1.00;;
55222;SDS011;41090;48.632;12.428;2023-03-14T07:44:05;1.87;;;0.90;;
55222;SDS011;41090;48.632;12.428;2023-03-14T07:46:31;2.50;;;1.00;;
55222;SDS011;41090;48.632;12.428;2023-03-14T07:48:56;1.00;;;0.90;;
55222;SDS011;41090;48.632;12.428;2023-03-14T07:51:21;0.93;;;0.93;;
55222;SDS011;41090;48.632;12.428;2023-03-14T07:53:47;1.10;;;0.93;;
55222;SDS011;41090;48.632;12.428;2023-03-14T07:56:12;2.20;;;0.90;;
55222;SDS011;41090;48.632;12.428;2023-03-14T07:58:37;0.90;;;0.90;;
55222;SDS011;41090;48.632;12.428;2023-03-14T08:01:02;3.90;;;1.30;;
55222;SDS011;41090;48.632;12.428;2023-03-14T08:03:29;0.80;;;0.80;;
55222;SDS011;41090;48.632;12.428;2023-03-14T08:05:54;1.67;;;0.97;;
55222;SDS011;41090;48.632;12.428;2023-03-14T08:08:19;1.00;;;0.87;;
55222;SDS011;41090;48.632;12.428;2023-03-14T08:10:45;1.00;;;0.90;;
55222;SDS011;41090;48.632;12.428;2023-03-14T08:13:18;1.07;;;1.00;;
55222;SDS011;41090;48.632;12.428;2023-03-14T08:15:47;1.00;;;0.90;;
55222;SDS011;41090;48.632;12.428;2023-03-14T08:18:12;1.43;;;0.90;;
55222;SDS011;41090;48.632;12.428;2023-03-14T08:20:37;1.73;;;0.97;;
55222;SDS011;41090;48.632;12.428;2023-03-14T08:23:03;1.33;;;1.10;;
55222;SDS011;41090;48.632;12.428;2023-03-14T08:25:29;1.20;;;0.97;;
55222;SDS011;41090;48.632;12.428;2023-03-14T08:27:54;1.10;;;1.00;;
55222;SDS011;41090;48.632;12.428;2023-03-14T08:30:21;0.93;;;0.90;;
55222;SDS011;41090;48.632;12.428;2023-03-14T08:32:46;1.57;;;1.10;;
55222;SDS011;41090;48.632;12.428;2023-03-14T08:35:12;1.73;;;1.10;;
55222;SDS011;41090;48.632;12.428;2023-03-14T08:37:37;1.47;;;1.10;;
55222;SDS011;41090;48.632;12.428;2023-03-14T08:40:03;0.93;;;0.70;;
55222;SDS011;41090;48.632;12.428;2023-03-14T08:42:32;0.80;;;0.80;;
55222;SDS011;41090;48.632;12.428;2023-03-14T08:45:00;0.90;;;0.80;;
55222;SDS011;41090;48.632;12.428;2023-03-14T08:47:25;1.10;;;1.00;;
55222;SDS011;41090;48.632;12.428;2023-03-14T08:49:50;1.13;;;1.00;;
55222;SDS011;41090;48.632;12.428;2023-03-14T08:52:16;1.00;;;0.90;;
55222;SDS011;41090;48.632;12.428;2023-03-14T08:54:41;1.03;;;0.90;;
55222;SDS011;41090;48.632;12.428;2023-03-14T08:57:08;0.80;;;0.80;;
55222;SDS011;41090;48.632;12.428;2023-03-14T08:59:33;1.30;;;1.03;;
55222;SDS011;41090;48.632;12.428;2023-03-14T09:01:58;0.80;;;0.80;;
55222;SDS011;41090;48.632;12.428;2023-03-14T09:04:23;0.93;;;0.90;;
55222;SDS011;41090;48.632;12.428;2023-03-14T09:06:48;1.03;;;0.93;;
55222;SDS011;41090;48.632;12.428;2023-03-14T09:09:14;1.10;;;0.90;;
55222;SDS011;41090;48.632;12.428;2023-03-14T09:11:39;1.03;;;0.90;;
55222;SDS011;41090;48.632;12.428;2023-03-14T09:14:05;1.10;;;1.00;;
55222;SDS011;41090;48.632;12.428;2023-03-14T09:16:38;1.33;;;0.87;;
55222;SDS011;41090;48.632;12.428;2023-03-14T09:19:03;0.80;;;0.80;;
55222;SDS011;41090;48.632;12.428;2023-03-14T09:21:28;1.17;;;0.90;;
55222;SDS011;41090;48.632;12.428;2023-03-14T09:23:54;1.23;;;0.90;;
55222;SDS011;41090;48.632;12.428;2023-03-14T09:26:19;1.17;;;0.90;;
55222;SDS011;41090;48.632;12.428;2023-03-14T09:28:44;2.10;;;1.80;;
55222;SDS011;41090;48.632;12.428;2023-03-14T09:31:10;1.20;;;1.00;;
55222;SDS011;41090;48.632;12.428;2023-03-14T09:33:36;1.17;;;1.07;;
55222;SDS011;41090;48.632;12.428;2023-03-14T09:36:02;1.77;;;1.10;;
55222;SDS011;41090;48.632;12.428;2023-03-14T09:38:27;1.00;;;0.87;;
55222;SDS011;41090;48.632;12.428;2023-03-14T09:40:53;2.97;;;0.90;;
55222;SDS011;41090;48.632;12.428;2023-03-14T09:43:18;0.90;;;0.90;;
55222;SDS011;41090;48.632;12.428;2023-03-14T09:45:44;1.13;;;0.87;;
55222;SDS011;41090;48.632;12.428;2023-03-14T09:48:15;1.97;;;0.90;;
55222;SDS011;41090;48.632;12.428;2023-03-14T09:50:42;0.80;;;0.80;;
55222;SDS011;41090;48.632;12.428;2023-03-14T09:53:16;0.90;;;0.80;;
55222;SDS011;41090;48.632;12.428;2023-03-14T09:55:42;1.37;;;1.00;;
55222;SDS011;41090;48.632;12.428;2023-03-14T09:58:16;2.10;;;0.90;;
55222;SDS011;41090;48.632;12.428;2023-03-14T10:00:41;0.90;;;0.90;;
55222;SDS011;41090;48.632;12.428;2023-03-14T10:05:38;1.70;;;0.80;;
55222;SDS011;41090;48.632;12.428;2023-03-14T10:08:03;1.47;;;1.10;;
55222;SDS011;41090;48.632;12.428;2023-03-14T10:10:29;1.27;;;1.00;;
55222;SDS011;41090;48.632;12.428;2023-03-14T10:15:35;1.87;;;1.17;;
55222;SDS011;41090;48.632;12.428;2023-03-14T10:18:02;1.30;;;0.90;;
55222;SDS011;41090;48.632;12.428;2023-03-14T10:22:57;1.83;;;1.50;;
55222;SDS011;41090;48.632;12.428;2023-03-14T10:25:25;1.17;;;1.07;;
55222;SDS011;41090;48.632;12.428;2023-03-14T10:27:51;1.30;;;1.10;;
55222;SDS011;41090;48.632;12.428;2023-03-14T10:33:10;3.97;;;2.37;;
55222;SDS011;41090;48.632;12.428;2023-03-14T10:35:36;9.37;;;7.23;;
55222;SDS011;41090;48.632;12.428;2023-03-14T10:38:02;3.07;;;2.43;;
55222;SDS011;41090;48.632;12.428;2023-03-14T10:40:28;3.73;;;2.80;;
55222;SDS011;41090;48.632;12.428;2023-03-14T10:42:55;3.07;;;1.73;;
55222;SDS011;41090;48.632;12.428;2023-03-14T10:48:22;4.83;;;3.63;;
55222;SDS011;41090;48.632;12.428;2023-03-14T10:53:19;1.60;;;1.20;;
55222;SDS011;41090;48.632;12.428;2023-03-14T10:55:44;1.20;;;1.00;;
55222;SDS011;41090;48.632;12.428;2023-03-14T11:00:49;1.20;;;0.90;;
55222;SDS011;41090;48.632;12.428;2023-03-14T11:03:15;1.10;;;1.00;;
55222;SDS011;41090;48.632;12.428;2023-03-14T11:08:07;1.40;;;1.00;;
55222;SDS011;41090;48.632;12.428;2023-03-14T11:10:35;1.20;;;1.10;;
55222;SDS011;41090;48.632;12.428;2023-03-14T11:15:36;1.00;;;0.90;;
55222;SDS011;41090;48.632;12.428;2023-03-14T11:18:45;1.10;;;1.00;;
55222;SDS011;41090;48.632;12.428;2023-03-14T11:20:55;1.10;;;1.00;;
55222;SDS011;41090;48.632;12.428;2023-03-14T11:23:25;1.77;;;1.07;;
55222;SDS011;41090;48.632;12.428;2023-03-14T11:28:23;1.10;;;1.00;;
55222;SDS011;41090;48.632;12.428;2023-03-14T11:30:51;1.10;;;1.00;;
55222;SDS011;41090;48.632;12.428;2023-03-14T11:33:24;1.00;;;0.90;;
55222;SDS011;41090;48.632;12.428;2023-03-14T11:35:53;1.23;;;0.90;;
55222;SDS011;41090;48.632;12.428;2023-03-14T11:40:48;2.30;;;1.77;;
55222;SDS011;41090;48.632;12.428;2023-03-14T11:46:04;4.73;;;3.83;;
55222;SDS011;41090;48.632;12.428;2023-03-14T11:50:59;3.07;;;2.83;;
55222;SDS011;41090;48.632;12.428;2023-03-14T11:53:36;2.07;;;1.37;;
55222;SDS011;41090;48.632;12.428;2023-03-14T11:56:52;1.10;;;1.00;;
55222;SDS011;41090;48.632;12.428;2023-03-14T11:58:55;1.20;;;1.00;;
55222;SDS011;41090;48.632;12.428;2023-03-14T12:01:22;1.30;;;1.00;;
55222;SDS011;41090;48.632;12.428;2023-03-14T12:03:55;0.97;;;0.90;;
55222;SDS011;41090;48.632;12.428;2023-03-14T12:06:28;1.20;;;0.93;;
55222;SDS011;41090;48.632;12.428;2023-03-14T12:08:58;1.07;;;1.00;;
55222;SDS011;41090;48.632;12.428;2023-03-14T12:13:50;1.43;;;1.17;;
55222;SDS011;41090;48.632;12.428;2023-03-14T12:18:53;1.30;;;1.13;;
55222;SDS011;41090;48.632;12.428;2023-03-14T12:21:19;1.20;;;1.10;;
55222;SDS011;41090;48.632;12.428;2023-03-14T12:26:14;1.67;;;0.90;;
55222;SDS011;41090;48.632;12.428;2023-03-14T12:28:44;2.50;;;1.00;;
55222;SDS011;41090;48.632;12.428;2023-03-14T12:34:01;1.00;;;0.90;;
55222;SDS011;41090;48.632;12.428;2023-03-14T12:42:01;2.43;;;1.20;;
55222;SDS011;41090;48.632;12.428;2023-03-14T12:46:58;1.20;;;1.10;;
55222;SDS011;41090;48.632;12.428;2023-03-14T12:49:30;2.13;;;1.20;;
55222;SDS011;41090;48.632;12.428;2023-03-14T12:51:59;1.40;;;1.20;;
55222;SDS011;41090;48.632;12.428;2023-03-14T12:57:03;2.63;;;1.20;;
55222;SDS011;41090;48.632;12.428;2023-03-14T12:59:35;1.57;;;1.03;;
55222;SDS011;41090;48.632;12.428;2023-03-14T13:07:00;1.50;;;1.30;;
55222;SDS011;41090;48.632;12.428;2023-03-14T13:11:54;1.80;;;1.40;;
55222;SDS011;41090;48.632;12.428;2023-03-14T13:14:20;2.00;;;1.43;;
55222;SDS011;41090;48.632;12.428;2023-03-14T13:16:48;1.30;;;1.20;;
55222;SDS011;41090;48.632;12.428;2023-03-14T13:19:18;2.10;;;1.30;;
55222;SDS011;41090;48.632;12.428;2023-03-14T13:21:45;1.43;;;1.33;;
55222;SDS011;41090;48.632;12.428;2023-03-14T13:26:45;2.43;;;1.40;;
55222;SDS011;41090;48.632;12.428;2023-03-14T13:29:18;2.83;;;1.53;;
55222;SDS011;41090;48.632;12.428;2023-03-14T13:31:48;2.03;;;1.30;;
55222;SDS011;41090;48.632;12.428;2023-03-14T13:34:14;2.07;;;1.30;;
55222;SDS011;41090;48.632;12.428;2023-03-14T13:36:39;1.77;;;1.20;;
55222;SDS011;41090;48.632;12.428;2023-03-14T13:39:06;1.97;;;1.23;;
55222;SDS011;41090;48.632;12.428;2023-03-14T13:41:36;1.80;;;1.30;;
55222;SDS011;41090;48.632;12.428;2023-03-14T13:44:08;2.47;;;1.30;;
55222;SDS011;41090;48.632;12.428;2023-03-14T13:46:34;1.70;;;1.40;;
55222;SDS011;41090;48.632;12.428;2023-03-14T13:49:01;2.47;;;1.30;;
55222;SDS011;41090;48.632;12.428;2023-03-14T13:51:27;1.10;;;1.00;;
55222;SDS011;41090;48.632;12.428;2023-03-14T13:53:56;1.57;;;1.30;;
55222;SDS011;41090;48.632;12.428;2023-03-14T13:56:23;2.30;;;1.30;;
55222;SDS011;41090;48.632;12.428;2023-03-14T13:58:50;1.37;;;1.27;;
55222;SDS011;41090;48.632;12.428;2023-03-14T14:01:19;1.40;;;1.30;;
55222;SDS011;41090;48.632;12.428;2023-03-14T14:03:45;1.37;;;1.20;;
55222;SDS011;41090;48.632;12.428;2023-03-14T14:06:22;1.20;;;1.00;;
55222;SDS011;41090;48.632;12.428;2023-03-14T14:08:48;0.80;;;0.80;;
55222;SDS011;41090;48.632;12.428;2023-03-14T14:11:18;0.80;;;0.80;;
55222;SDS011;41090;48.632;12.428;2023-03-14T14:13:45;2.00;;;0.87;;
55222;SDS011;41090;48.632;12.428;2023-03-14T14:16:10;0.80;;;0.80;;
55222;SDS011;41090;48.632;12.428;2023-03-14T14:18:36;1.80;;;0.80;;
55222;SDS011;41090;48.632;12.428;2023-03-14T14:21:02;1.10;;;1.00;;
55222;SDS011;41090;48.632;12.428;2023-03-14T14:23:28;1.10;;;0.90;;
55222;SDS011;41090;48.632;12.428;2023-03-14T14:25:55;1.17;;;1.00;;
55222;SDS011;41090;48.632;12.428;2023-03-14T14:28:32;1.80;;;1.20;;
55222;SDS011;41090;48.632;12.428;2023-03-14T14:33:46;3.40;;;1.10;;
55222;SDS011;41090;48.632;12.428;2023-03-14T14:36:22;2.67;;;0.93;;
55222;SDS011;41090;48.632;12.428;2023-03-14T14:38:56;1.60;;;1.10;;
55222;SDS011;41090;48.632;12.428;2023-03-14T14:41:23;0.80;;;0.80;;
55222;SDS011;41090;48.632;12.428;2023-03-14T14:43:51;1.30;;;0.80;;
55222;SDS011;41090;48.632;12.428;2023-03-14T14:46:17;0.70;;;0.70;;
55222;SDS011;41090;48.632;12.428;2023-03-14T14:48:43;1.10;;;0.80;;
55222;SDS011;41090;48.632;12.428;2023-03-14T14:51:10;0.73;;;0.73;;
55222;SDS011;41090;48.632;12.428;2023-03-14T14:53:39;1.37;;;1.10;;
55222;SDS011;41090;48.632;12.428;2023-03-14T14:56:15;0.83;;;0.83;;
55222;SDS011;41090;48.632;12.428;2023-03-14T14:58:43;1.33;;;0.83;;
55222;SDS011;41090;48.632;12.428;2023-03-14T15:01:14;17.17;;;10.40;;
55222;SDS011;41090;48.632;12.428;2023-03-14T15:03:41;8.40;;;7.20;;
55222;SDS011;41090;48.632;12.428;2023-03-14T15:06:08;10.53;;;8.30;;
55222;SDS011;41090;48.632;12.428;2023-03-14T15:08:33;4.53;;;3.53;;
55222;SDS011;41090;48.632;12.428;2023-03-14T15:10:59;3.47;;;3.23;;
55222;SDS011;41090;48.632;12.428;2023-03-14T15:13:24;16.63;;;14.17;;
55222;SDS011;41090;48.632;12.428;2023-03-14T15:15:50;5.70;;;4.60;;
55222;SDS011;41090;48.632;12.428;2023-03-14T15:18:20;1.60;;;1.50;;
55222;SDS011;41090;48.632;12.428;2023-03-14T15:20:46;3.00;;;1.60;;
55222;SDS011;41090;48.632;12.428;2023-03-14T15:23:15;2.10;;;1.40;;
55222;SDS011;41090;48.632;12.428;2023-03-14T15:25:41;2.80;;;1.60;;
55222;SDS011;41090;48.632;12.428;2023-03-14T15:28:14;1.97;;;1.67;;
55222;SDS011;41090;48.632;12.428;2023-03-14T15:30:41;2.50;;;1.00;;
55222;SDS011;41090;48.632;12.428;2023-03-14T15:33:06;1.13;;;0.90;;
55222;SDS011;41090;48.632;12.428;2023-03-14T15:35:33;1.43;;;1.03;;
55222;SDS011;41090;48.632;12.428;2023-03-14T15:37:59;1.10;;;1.00;;
55222;SDS011;41090;48.632;12.428;2023-03-14T15:40:24;1.10;;;1.00;;
55222;SDS011;41090;48.632;12.428;2023-03-14T15:42:49;1.20;;;1.10;;
55222;SDS011;41090;48.632;12.428;2023-03-14T15:45:15;1.10;;;1.00;;